Terminal Aerodrome Forecast
Issued by NWS

Home | Current Version | Previous Version | Text Only | Print | Product List | Glossary On
Versions: 1 2 3 4 5 6 7 8 9 10 11 12 13 14 15
000
FTUS43 KIND 251100
TAFBMG
TAF
KBMG 251120Z 2512/2612 19014G24KT P6SM -SHRA SCT015 OVC025
     FM251500 20014G24KT P6SM VCTS OVC025CB
     FM251900 21014G24KT P6SM OVC025
     FM260000 18012KT P6SM OVC025
     FM260400 17007KT 5SM BR OVC015
      AMD LTD TO CLD VIS AND WIND TIL 251300=

USA.gov is the U.S. government's official web portal to all federal, state and local government web resources and services.